Ship Status Report: callsign BAREU51

sailwx.info

Track history (hours):
 
Tides and Currents Weather Stations Pressure Air Temp Water Temp Dewpoint Dewpoint Depression Visibility Wind Speed Wind Dir Waves Ship Positions

Callsign BAREU51 (name unknown)

Last reported at 2014-Nov-30 03:00 UTC. Time now 2014-Dec-20 19:29 UTC.
Position N 39°18' E 012°30'.
Warning: this ship's position is 20 days out of date.

Barometer 1008.9 mb
Air temperature 21.0 ° C

Date/timePositionNaut miles runAvg speedWind from/ knotsBaromVisibWave heightAir tempDewpointWater temp
2014-Nov-30 03:00N 39°18' E 012°30'2020.3 1008.9 21.0
2014-Nov-30 02:00N 39°00' E 012°42'2322.8 1010.1 21.8
2014-Nov-30 01:00N 38°42' E 013°00'2322.9 1010.1 22.1
2014-Nov-30 00:00N 38°24' E 013°18'19 3.1 1010.9 23.0
2014-Nov-29 18:00N 38°06' E 013°24'2625.8 1010.6 24.5
2014-Nov-29 17:00N 38°30' E 013°12'2020.3 1009.5 20.6
2014-Nov-29 16:00N 38°48' E 013°00'2322.8 1009.4 20.7
2014-Nov-29 15:00N 39°06' E 012°42'2625.7 1009.1 20.4
2014-Nov-29 14:00N 39°30' E 012°30'2020.2 1009.3 20.5
2014-Nov-29 13:00N 39°48' E 012°18'2020.2 1009.3 20.3
2014-Nov-29 12:00N 40°06' E 012°06'2625.7 1009.9 20.7
2014-Nov-29 11:00N 40°30' E 011°54'2020.2 1010.6 20.7
2014-Nov-29 10:00N 40°48' E 011°42'2827.6 1010.9 20.2
2014-Nov-29 09:00N 41°12' E 011°24'2020.1 1010.7 19.1
2014-Nov-29 08:00N 41°30' E 011°12'2020.1 1010.2 18.5
2014-Nov-29 07:00N 41°48' E 011°00'2222.4 1009.4 18.5
2014-Nov-29 06:00N 42°06' E 010°42'2020.1 1009.1 18.5
2014-Nov-29 05:00N 42°24' E 010°30'2222.4 1009.1 19.2
2014-Nov-29 04:00N 42°42' E 010°12'2020.0 1009.4 19.4
2014-Nov-29 03:00N 43°00' E 010°00'2020.0 1009.7 19.4
2014-Nov-29 02:00N 43°18' E 009°48'2222.2 1010.2 18.5
2014-Nov-29 01:00N 43°36' E 009°30'2222.2 1010.6 17.9
2014-Nov-29 00:00N 43°54' E 009°12'2625.5 1012.4 16.8
2014-Nov-28 23:00N 44°18' E 009°00'0 0.0 1013.3 13.9
2014-Nov-28 17:00N 44°18' E 009°00'2020.0 1010.9 12.9
2014-Nov-28 16:00N 44°00' E 009°12'2424.4 1009.4 17.3
2014-Nov-28 15:00N 43°36' E 009°18'2020.0 1003.7 16.9
2014-Nov-28 14:00N 43°18' E 009°30'2625.5 1006.1 17.6
2014-Nov-28 13:00N 42°54' E 009°42'2625.6 1007.4 18.4
2014-Nov-28 12:00N 42°30' E 009°54'2020.1 1007.3 18.7
2014-Nov-28 11:00N 42°12' E 010°06'2020.1 1008.1 18.7
2014-Nov-28 10:00N 41°54' E 010°18'2827.5 1008.7 18.5
2014-Nov-28 09:00N 41°30' E 010°36'2322.5 1009.0 18.1
2014-Nov-28 08:00N 41°12' E 010°54'2322.5 1009.6 18.5
2014-Nov-28 07:00N 40°54' E 011°12'2020.2 1009.7 18.8
2014-Nov-28 06:00N 40°36' E 011°24'2322.6 1009.9 18.6
2014-Nov-28 05:00N 40°18' E 011°42'2827.7 1010.1 18.6
2014-Nov-28 04:00N 39°54' E 012°00'2322.7 1010.5 18.6
2014-Nov-28 03:00N 39°36' E 012°18'2020.2 1010.8 18.7
2014-Nov-28 02:00N 39°18' E 012°30'2322.8 1010.9 18.9
2014-Nov-28 01:00N 39°00' E 012°48'2020.3 1011.3 18.9
2014-Nov-28 00:00N 38°42' E 013°00'2322.9 1011.1 19.1
2014-Nov-27 23:00N 38°24' E 013°18'19 3.7 1012.9 19.6
2014-Nov-27 18:00N 38°06' E 013°24'1918.6 1014.5 18.0
2014-Nov-27 17:00N 38°24' E 013°18'2322.9 1012.7 18.7
2014-Nov-27 16:00N 38°42' E 013°00'2827.8 1012.6 18.6
2014-Nov-27 15:00N 39°06' E 012°42'2322.8 1012.9 19.5
2014-Nov-27 14:00N 39°24' E 012°24'2020.2 1012.9 19.8
2014-Nov-27 13:00N 39°42' E 012°12'2322.7 1012.5 19.7
2014-Nov-27 12:00N 40°00' E 011°54'2827.7 1012.6 20.1
2014-Nov-27 11:00N 40°24' E 011°36'2020.2 1013.2 20.5
2014-Nov-27 10:00N 40°42' E 011°24'2322.6 1013.2 20.2
2014-Nov-27 09:00N 41°00' E 011°06'2322.5 1013.6 19.5
2014-Nov-27 08:00N 41°18' E 010°48'2020.1 1013.9 18.1
2014-Nov-27 07:00N 41°36' E 010°36'2222.5 1013.1 17.7
2014-Nov-27 06:00N 41°54' E 010°18'2222.4 1011.8 17.9
2014-Nov-27 05:00N 42°12' E 010°00'2625.6 1011.4 17.4
2014-Nov-27 04:00N 42°36' E 009°48'2020.0 1011.8 17.2
2014-Nov-27 03:00N 42°54' E 009°36'2424.4 1012.8 17.2
2014-Nov-27 02:00N 43°18' E 009°30'2020.0 1013.1 16.2
2014-Nov-27 01:00N 43°36' E 009°18'2625.5 1012.6 17.0
2014-Nov-27 00:00N 44°00' E 009°06'1918.5 1014.0 16.2
2014-Nov-26 23:00N 44°18' E 009°00'6 1.2 1015.4 12.3
2014-Nov-26 18:00N 44°24' E 009°00'1312.7 1014.2 12.0
2014-Nov-26 17:00N 44°12' E 009°06'2424.4 1014.1 15.4
2014-Nov-26 16:00N 43°48' E 009°12'2625.5 1013.7 15.4
2014-Nov-26 15:00N 43°24' E 009°24'2020.0 1014.7 16.1
2014-Nov-26 14:00N 43°06' E 009°36'2625.6 1014.9 16.6
2014-Nov-26 13:00N 42°42' E 009°48'1918.5 1014.8 16.4
2014-Nov-26 12:00N 42°24' E 009°54'2727.5 1015.6 17.6
2014-Nov-26 11:00N 42°00' E 010°12'2222.4 1015.8 18.3
2014-Nov-26 10:00N 41°42' E 010°30'2222.5 1016.2 18.6
2014-Nov-26 09:00N 41°24' E 010°48'2020.1 1017.4 18.1
2014-Nov-26 08:00N 41°06' E 011°00'2827.6 1017.5 17.5
2014-Nov-26 07:00N 40°42' E 011°18'2322.6 1017.2 16.7
2014-Nov-26 06:00N 40°24' E 011°36'2020.2 1016.6 16.6
2014-Nov-26 05:00N 40°06' E 011°48'2322.7 1017.2 18.8
2014-Nov-26 04:00N 39°48' E 012°06'2322.7 1017.5 18.3
2014-Nov-26 03:00N 39°30' E 012°24'2020.3 1017.9 18.1
2014-Nov-26 02:00N 39°12' E 012°36'2827.8 1018.5 18.3
2014-Nov-26 01:00N 38°48' E 012°54'2322.8 1018.8 18.5
2014-Nov-26 00:00N 38°30' E 013°12'2020.3 1019.2 18.7
2014-Nov-25 23:00N 38°12' E 013°24'0 0.0 1019.6 18.1
2014-Nov-25 17:00N 38°12' E 013°24'2020.3 1019.7 18.9
2014-Nov-25 16:00N 38°30' E 013°12'2322.8 1019.5 18.8
2014-Nov-25 15:00N 38°48' E 012°54'2827.8 1019.4 18.9
2014-Nov-25 14:00N 39°12' E 012°36'2020.3 1019.4 19.4
2014-Nov-25 13:00N 39°30' E 012°24'2322.7 1020.0 19.0
2014-Nov-25 12:00N 39°48' E 012°06'2322.7 1019.9 19.5
2014-Nov-25 11:00N 40°06' E 011°48'2625.7 1020.9 19.4
2014-Nov-25 10:00N 40°30' E 011°36'2322.6 1021.2 19.4
2014-Nov-25 09:00N 40°48' E 011°18'2322.6 1021.3 19.4
2014-Nov-25 08:00N 41°06' E 011°00'2322.5 1021.3 18.7
2014-Nov-25 07:00N 41°24' E 010°42'2020.1 1020.8 17.6
2014-Nov-25 06:00N 41°42' E 010°30'2222.4 1020.8 17.6
2014-Nov-25 05:00N 42°00' E 010°12'2222.4 1020.5 17.7
2014-Nov-25 04:00N 42°18' E 009°54'2424.4 1020.7 18.2
2014-Nov-25 03:00N 42°42' E 009°48'2020.0 1020.9 18.2
2014-Nov-25 02:00N 43°00' E 009°36'2625.5 1020.8 18.3
2014-Nov-25 01:00N 43°24' E 009°24'1918.5 1021.0 18.5
2014-Nov-25 00:00N 43°42' E 009°18'2625.5 1021.3 17.9
2014-Nov-24 23:00N 44°06' E 009°06'2019.9 1022.6 17.5
2014-Nov-24 22:00N 44°24' E 008°54'0 0.0 1023.6 17.1
2014-Nov-23 18:00N 44°24' E 008°54'2019.9 1025.7 16.1
2014-Nov-23 17:00N 44°06' E 009°06'2625.5 1025.2 17.6
2014-Nov-23 16:00N 43°42' E 009°18'1918.5 1023.8 17.9
2014-Nov-23 15:00N 43°24' E 009°24'2625.5 1024.1 18.2
2014-Nov-23 14:00N 43°00' E 009°36'2020.0 1024.6 18.6
2014-Nov-23 13:00N 42°42' E 009°48'2625.6 1025.3 19.0
2014-Nov-23 12:00N 42°18' E 010°00'2222.4 1025.9 19.1
2014-Nov-23 11:00N 42°00' E 010°18'2625.6 1026.6 18.6
2014-Nov-23 10:00N 41°36' E 010°30'2222.5 1027.0 18.5
2014-Nov-23 09:00N 41°18' E 010°48'2322.5 1026.5 19.0
2014-Nov-23 08:00N 41°00' E 011°06'2322.6 1026.5 18.8
2014-Nov-23 07:00N 40°42' E 011°24'2625.7 1026.1 18.6
2014-Nov-23 06:00N 40°18' E 011°36'2322.7 1025.6 18.5
2014-Nov-23 05:00N 40°00' E 011°54'2322.7 1025.4 18.4
2014-Nov-23 04:00N 39°42' E 012°12'2322.7 1025.3 18.1
2014-Nov-23 03:00N 39°24' E 012°30'2020.3 1024.5 18.1
2014-Nov-23 02:00N 39°06' E 012°42'2827.8 1025.0 18.1
2014-Nov-23 01:00N 38°42' E 013°00'2322.9 1025.6 18.2
2014-Nov-23 00:00N 38°24' E 013°18'1918.6 1025.3 17.9
2014-Nov-22 23:00N 38°06' E 013°24'6 1.0 1025.4 15.8
2014-Nov-22 17:00N 38°12' E 013°24'2020.3 1024.4 17.9
2014-Nov-22 16:00N 38°30' E 013°12'2322.8 1023.6 17.9
2014-Nov-22 15:00N 38°48' E 012°54'2827.8 1023.9 18.2
2014-Nov-22 14:00N 39°12' E 012°36'2020.3 1024.0 18.4
2014-Nov-22 13:00N 39°30' E 012°24'2322.7 1023.8 18.9
2014-Nov-22 12:00N 39°48' E 012°06'2322.7 1024.5 19.3
2014-Nov-22 11:00N 40°06' E 011°48'2827.6 1024.1 19.4
2014-Nov-22 10:00N 40°30' E 011°30'2020.2 1024.3 18.8
2014-Nov-22 09:00N 40°48' E 011°18'2322.6 1023.5 18.4
2014-Nov-22 08:00N 41°06' E 011°00'2322.5 1023.0 18.6
2014-Nov-22 07:00N 41°24' E 010°42'2827.5 1022.2 17.4
2014-Nov-22 06:00N 41°48' E 010°24'2020.1 1021.8 17.6
2014-Nov-22 05:00N 42°06' E 010°12'2222.4 1021.6 17.7
2014-Nov-22 04:00N 42°24' E 009°54'2625.6 1021.4 17.7
2014-Nov-22 03:00N 42°48' E 009°42'2020.0 1021.9 17.5
2014-Nov-22 02:00N 43°06' E 009°30'2424.4 1022.3 16.7
2014-Nov-22 01:00N 43°30' E 009°24'2020.0 1022.4 16.4
2014-Nov-22 00:00N 43°48' E 009°12'2625.5 1022.7 15.7
2014-Nov-21 23:00N 44°12' E 009°00'6 1.0 1022.5 16.0
2014-Nov-21 17:00N 44°18' E 009°00'2625.5 1022.6 16.1
2014-Nov-21 16:00N 43°54' E 009°12'1918.5 1022.1 15.7
2014-Nov-21 15:00N 43°36' E 009°18'2625.5 1021.4 16.2
2014-Nov-21 14:00N 43°12' E 009°30'2625.6 1021.3 17.2
2014-Nov-21 13:00N 42°48' E 009°42'2020.0 1021.9 17.9
2014-Nov-21 12:00N 42°30' E 009°54'2625.6 1022.8 19.6
2014-Nov-21 11:00N 42°06' E 010°06'2222.4 1023.8 19.0
2014-Nov-21 10:00N 41°48' E 010°24'2222.5 1024.1 18.3
2014-Nov-21 09:00N 41°30' E 010°42'2322.5 1024.0 17.8
2014-Nov-21 08:00N 41°12' E 011°00'2625.7 1023.6 18.3
2014-Nov-21 07:00N 40°48' E 011°12'2322.6 1023.6 18.0
2014-Nov-21 06:00N 40°30' E 011°30'2322.6 1023.4 17.7
2014-Nov-21 05:00N 40°12' E 011°48'2322.7 1023.4 17.2
2014-Nov-21 04:00N 39°54' E 012°06'2625.7 1023.2 17.1
2014-Nov-21 03:00N 39°30' E 012°18'2322.8 1023.5 17.0
2014-Nov-21 02:00N 39°12' E 012°36'2322.8 1023.5 17.2
2014-Nov-21 01:00N 38°54' E 012°54'2020.3 1023.6 17.6
2014-Nov-21 00:00N 38°36' E 013°06'2827.8 1024.0 17.7
2014-Nov-20 23:00N 38°12' E 013°24'6 1.2 1024.5 16.9
2014-Nov-20 18:00N 38°06' E 013°24'1312.9 1024.1 17.9
2014-Nov-20 17:00N 38°18' E 013°18'2625.8 1023.2 18.0
2014-Nov-20 16:00N 38°42' E 013°06'2322.8 1023.2 18.0
2014-Nov-20 15:00N 39°00' E 012°48'2322.8 1023.5 19.1
2014-Nov-20 14:00N 39°18' E 012°30'2322.7 1023.6 19.5
2014-Nov-20 13:00N 39°36' E 012°12'2625.7 1023.9 19.6
2014-Nov-20 12:00N 40°00' E 012°00'2322.7 1024.2 19.6
2014-Nov-20 11:00N 40°18' E 011°42'2322.6 1024.4 19.6
2014-Nov-20 10:00N 40°36' E 011°24'2827.6 1024.8 19.3
2014-Nov-20 09:00N 41°00' E 011°06'2322.5 1024.6 18.4
2014-Nov-20 08:00N 41°18' E 010°48'2020.1 1024.6 17.7
2014-Nov-20 07:00N 41°36' E 010°36'2222.5 1023.9 17.3
2014-Nov-20 06:00N 41°54' E 010°18'2222.4 1023.3 16.8
2014-Nov-20 05:00N 42°12' E 010°00'2625.6 1023.0 16.9
2014-Nov-20 04:00N 42°36' E 009°48'2625.6 1022.9 16.9
2014-Nov-20 03:00N 43°00' E 009°36'   1022.8 16.7
Track history (hours):
 
Tides and Currents Weather Stations Pressure Air Temp Water Temp Dewpoint Dewpoint Depression Visibility Wind Speed Wind Dir Waves Ship Positions

Callsign BAREU51 (name unknown)

Last reported at 2014-Nov-30 03:00 UTC. Time now 2014-Dec-20 19:29 UTC.
Position N 39°18' E 012°30'.
Warning: this ship's position is 20 days out of date.

Barometer 1008.9 mb
Air temperature 21.0 ° C

Date/timePositionNaut miles runAvg speedWind from/ knotsBaromVisibWave heightAir tempDewpointWater temp
2014-Nov-30 03:00N 39°18' E 012°30'2020.3 1008.9 21.0
2014-Nov-30 02:00N 39°00' E 012°42'2322.8 1010.1 21.8
2014-Nov-30 01:00N 38°42' E 013°00'2322.9 1010.1 22.1
2014-Nov-30 00:00N 38°24' E 013°18'19 3.1 1010.9 23.0
2014-Nov-29 18:00N 38°06' E 013°24'2625.8 1010.6 24.5
2014-Nov-29 17:00N 38°30' E 013°12'2020.3 1009.5 20.6
2014-Nov-29 16:00N 38°48' E 013°00'2322.8 1009.4 20.7
2014-Nov-29 15:00N 39°06' E 012°42'2625.7 1009.1 20.4
2014-Nov-29 14:00N 39°30' E 012°30'2020.2 1009.3 20.5
2014-Nov-29 13:00N 39°48' E 012°18'2020.2 1009.3 20.3
2014-Nov-29 12:00N 40°06' E 012°06'2625.7 1009.9 20.7
2014-Nov-29 11:00N 40°30' E 011°54'2020.2 1010.6 20.7
2014-Nov-29 10:00N 40°48' E 011°42'2827.6 1010.9 20.2
2014-Nov-29 09:00N 41°12' E 011°24'2020.1 1010.7 19.1
2014-Nov-29 08:00N 41°30' E 011°12'2020.1 1010.2 18.5
2014-Nov-29 07:00N 41°48' E 011°00'2222.4 1009.4 18.5
2014-Nov-29 06:00N 42°06' E 010°42'2020.1 1009.1 18.5
2014-Nov-29 05:00N 42°24' E 010°30'2222.4 1009.1 19.2
2014-Nov-29 04:00N 42°42' E 010°12'2020.0 1009.4 19.4
2014-Nov-29 03:00N 43°00' E 010°00'2020.0 1009.7 19.4
2014-Nov-29 02:00N 43°18' E 009°48'2222.2 1010.2 18.5
2014-Nov-29 01:00N 43°36' E 009°30'2222.2 1010.6 17.9
2014-Nov-29 00:00N 43°54' E 009°12'2625.5 1012.4 16.8
2014-Nov-28 23:00N 44°18' E 009°00'0 0.0 1013.3 13.9
2014-Nov-28 17:00N 44°18' E 009°00'2020.0 1010.9 12.9
2014-Nov-28 16:00N 44°00' E 009°12'2424.4 1009.4 17.3
2014-Nov-28 15:00N 43°36' E 009°18'2020.0 1003.7 16.9
2014-Nov-28 14:00N 43°18' E 009°30'2625.5 1006.1 17.6
2014-Nov-28 13:00N 42°54' E 009°42'2625.6 1007.4 18.4
2014-Nov-28 12:00N 42°30' E 009°54'2020.1 1007.3 18.7
2014-Nov-28 11:00N 42°12' E 010°06'2020.1 1008.1 18.7
2014-Nov-28 10:00N 41°54' E 010°18'2827.5 1008.7 18.5
2014-Nov-28 09:00N 41°30' E 010°36'2322.5 1009.0 18.1
2014-Nov-28 08:00N 41°12' E 010°54'2322.5 1009.6 18.5
2014-Nov-28 07:00N 40°54' E 011°12'2020.2 1009.7 18.8
2014-Nov-28 06:00N 40°36' E 011°24'2322.6 1009.9 18.6
2014-Nov-28 05:00N 40°18' E 011°42'2827.7 1010.1 18.6
2014-Nov-28 04:00N 39°54' E 012°00'2322.7 1010.5 18.6
2014-Nov-28 03:00N 39°36' E 012°18'2020.2 1010.8 18.7
2014-Nov-28 02:00N 39°18' E 012°30'2322.8 1010.9 18.9
2014-Nov-28 01:00N 39°00' E 012°48'2020.3 1011.3 18.9
2014-Nov-28 00:00N 38°42' E 013°00'2322.9 1011.1 19.1
2014-Nov-27 23:00N 38°24' E 013°18'19 3.7 1012.9 19.6
2014-Nov-27 18:00N 38°06' E 013°24'1918.6 1014.5 18.0
2014-Nov-27 17:00N 38°24' E 013°18'2322.9 1012.7 18.7
2014-Nov-27 16:00N 38°42' E 013°00'2827.8 1012.6 18.6
2014-Nov-27 15:00N 39°06' E 012°42'2322.8 1012.9 19.5
2014-Nov-27 14:00N 39°24' E 012°24'2020.2 1012.9 19.8
2014-Nov-27 13:00N 39°42' E 012°12'2322.7 1012.5 19.7
2014-Nov-27 12:00N 40°00' E 011°54'2827.7 1012.6 20.1
2014-Nov-27 11:00N 40°24' E 011°36'2020.2 1013.2 20.5
2014-Nov-27 10:00N 40°42' E 011°24'2322.6 1013.2 20.2
2014-Nov-27 09:00N 41°00' E 011°06'2322.5 1013.6 19.5
2014-Nov-27 08:00N 41°18' E 010°48'2020.1 1013.9 18.1
2014-Nov-27 07:00N 41°36' E 010°36'2222.5 1013.1 17.7
2014-Nov-27 06:00N 41°54' E 010°18'2222.4 1011.8 17.9
2014-Nov-27 05:00N 42°12' E 010°00'2625.6 1011.4 17.4
2014-Nov-27 04:00N 42°36' E 009°48'2020.0 1011.8 17.2
2014-Nov-27 03:00N 42°54' E 009°36'2424.4 1012.8 17.2
2014-Nov-27 02:00N 43°18' E 009°30'2020.0 1013.1 16.2
2014-Nov-27 01:00N 43°36' E 009°18'2625.5 1012.6 17.0
2014-Nov-27 00:00N 44°00' E 009°06'1918.5 1014.0 16.2
2014-Nov-26 23:00N 44°18' E 009°00'6 1.2 1015.4 12.3
2014-Nov-26 18:00N 44°24' E 009°00'1312.7 1014.2 12.0
2014-Nov-26 17:00N 44°12' E 009°06'2424.4 1014.1 15.4
2014-Nov-26 16:00N 43°48' E 009°12'2625.5 1013.7 15.4
2014-Nov-26 15:00N 43°24' E 009°24'2020.0 1014.7 16.1
2014-Nov-26 14:00N 43°06' E 009°36'2625.6 1014.9 16.6
2014-Nov-26 13:00N 42°42' E 009°48'1918.5 1014.8 16.4
2014-Nov-26 12:00N 42°24' E 009°54'2727.5 1015.6 17.6
2014-Nov-26 11:00N 42°00' E 010°12'2222.4 1015.8 18.3
2014-Nov-26 10:00N 41°42' E 010°30'2222.5 1016.2 18.6
2014-Nov-26 09:00N 41°24' E 010°48'2020.1 1017.4 18.1
2014-Nov-26 08:00N 41°06' E 011°00'2827.6 1017.5 17.5
2014-Nov-26 07:00N 40°42' E 011°18'2322.6 1017.2 16.7
2014-Nov-26 06:00N 40°24' E 011°36'2020.2 1016.6 16.6
2014-Nov-26 05:00N 40°06' E 011°48'2322.7 1017.2 18.8
2014-Nov-26 04:00N 39°48' E 012°06'2322.7 1017.5 18.3
2014-Nov-26 03:00N 39°30' E 012°24'2020.3 1017.9 18.1
2014-Nov-26 02:00N 39°12' E 012°36'2827.8 1018.5 18.3
2014-Nov-26 01:00N 38°48' E 012°54'2322.8 1018.8 18.5
2014-Nov-26 00:00N 38°30' E 013°12'2020.3 1019.2 18.7
2014-Nov-25 23:00N 38°12' E 013°24'0 0.0 1019.6 18.1
2014-Nov-25 17:00N 38°12' E 013°24'2020.3 1019.7 18.9
2014-Nov-25 16:00N 38°30' E 013°12'2322.8 1019.5 18.8
2014-Nov-25 15:00N 38°48' E 012°54'2827.8 1019.4 18.9
2014-Nov-25 14:00N 39°12' E 012°36'2020.3 1019.4 19.4
2014-Nov-25 13:00N 39°30' E 012°24'2322.7 1020.0 19.0
2014-Nov-25 12:00N 39°48' E 012°06'2322.7 1019.9 19.5
2014-Nov-25 11:00N 40°06' E 011°48'2625.7 1020.9 19.4
2014-Nov-25 10:00N 40°30' E 011°36'2322.6 1021.2 19.4
2014-Nov-25 09:00N 40°48' E 011°18'2322.6 1021.3 19.4
2014-Nov-25 08:00N 41°06' E 011°00'2322.5 1021.3 18.7
2014-Nov-25 07:00N 41°24' E 010°42'2020.1 1020.8 17.6
2014-Nov-25 06:00N 41°42' E 010°30'2222.4 1020.8 17.6
2014-Nov-25 05:00N 42°00' E 010°12'2222.4 1020.5 17.7
2014-Nov-25 04:00N 42°18' E 009°54'2424.4 1020.7 18.2
2014-Nov-25 03:00N 42°42' E 009°48'2020.0 1020.9 18.2
2014-Nov-25 02:00N 43°00' E 009°36'2625.5 1020.8 18.3
2014-Nov-25 01:00N 43°24' E 009°24'1918.5 1021.0 18.5
2014-Nov-25 00:00N 43°42' E 009°18'2625.5 1021.3 17.9
2014-Nov-24 23:00N 44°06' E 009°06'2019.9 1022.6 17.5
2014-Nov-24 22:00N 44°24' E 008°54'0 0.0 1023.6 17.1
2014-Nov-23 18:00N 44°24' E 008°54'2019.9 1025.7 16.1
2014-Nov-23 17:00N 44°06' E 009°06'2625.5 1025.2 17.6
2014-Nov-23 16:00N 43°42' E 009°18'1918.5 1023.8 17.9
2014-Nov-23 15:00N 43°24' E 009°24'2625.5 1024.1 18.2
2014-Nov-23 14:00N 43°00' E 009°36'2020.0 1024.6 18.6
2014-Nov-23 13:00N 42°42' E 009°48'2625.6 1025.3 19.0
2014-Nov-23 12:00N 42°18' E 010°00'2222.4 1025.9 19.1
2014-Nov-23 11:00N 42°00' E 010°18'2625.6 1026.6 18.6
2014-Nov-23 10:00N 41°36' E 010°30'2222.5 1027.0 18.5
2014-Nov-23 09:00N 41°18' E 010°48'2322.5 1026.5 19.0
2014-Nov-23 08:00N 41°00' E 011°06'2322.6 1026.5 18.8
2014-Nov-23 07:00N 40°42' E 011°24'2625.7 1026.1 18.6
2014-Nov-23 06:00N 40°18' E 011°36'2322.7 1025.6 18.5
2014-Nov-23 05:00N 40°00' E 011°54'2322.7 1025.4 18.4
2014-Nov-23 04:00N 39°42' E 012°12'2322.7 1025.3 18.1
2014-Nov-23 03:00N 39°24' E 012°30'2020.3 1024.5 18.1
2014-Nov-23 02:00N 39°06' E 012°42'2827.8 1025.0 18.1
2014-Nov-23 01:00N 38°42' E 013°00'2322.9 1025.6 18.2
2014-Nov-23 00:00N 38°24' E 013°18'1918.6 1025.3 17.9
2014-Nov-22 23:00N 38°06' E 013°24'6 1.0 1025.4 15.8
2014-Nov-22 17:00N 38°12' E 013°24'2020.3 1024.4 17.9
2014-Nov-22 16:00N 38°30' E 013°12'2322.8 1023.6 17.9
2014-Nov-22 15:00N 38°48' E 012°54'2827.8 1023.9 18.2
2014-Nov-22 14:00N 39°12' E 012°36'2020.3 1024.0 18.4
2014-Nov-22 13:00N 39°30' E 012°24'2322.7 1023.8 18.9
2014-Nov-22 12:00N 39°48' E 012°06'2322.7 1024.5 19.3
2014-Nov-22 11:00N 40°06' E 011°48'2827.6 1024.1 19.4
2014-Nov-22 10:00N 40°30' E 011°30'2020.2 1024.3 18.8
2014-Nov-22 09:00N 40°48' E 011°18'2322.6 1023.5 18.4
2014-Nov-22 08:00N 41°06' E 011°00'2322.5 1023.0 18.6
2014-Nov-22 07:00N 41°24' E 010°42'2827.5 1022.2 17.4
2014-Nov-22 06:00N 41°48' E 010°24'2020.1 1021.8 17.6
2014-Nov-22 05:00N 42°06' E 010°12'2222.4 1021.6 17.7
2014-Nov-22 04:00N 42°24' E 009°54'2625.6 1021.4 17.7
2014-Nov-22 03:00N 42°48' E 009°42'2020.0 1021.9 17.5
2014-Nov-22 02:00N 43°06' E 009°30'2424.4 1022.3 16.7
2014-Nov-22 01:00N 43°30' E 009°24'2020.0 1022.4 16.4
2014-Nov-22 00:00N 43°48' E 009°12'2625.5 1022.7 15.7
2014-Nov-21 23:00N 44°12' E 009°00'6 1.0 1022.5 16.0
2014-Nov-21 17:00N 44°18' E 009°00'2625.5 1022.6 16.1
2014-Nov-21 16:00N 43°54' E 009°12'1918.5 1022.1 15.7
2014-Nov-21 15:00N 43°36' E 009°18'2625.5 1021.4 16.2
2014-Nov-21 14:00N 43°12' E 009°30'2625.6 1021.3 17.2
2014-Nov-21 13:00N 42°48' E 009°42'2020.0 1021.9 17.9
2014-Nov-21 12:00N 42°30' E 009°54'2625.6 1022.8 19.6
2014-Nov-21 11:00N 42°06' E 010°06'2222.4 1023.8 19.0
2014-Nov-21 10:00N 41°48' E 010°24'2222.5 1024.1 18.3
2014-Nov-21 09:00N 41°30' E 010°42'2322.5 1024.0 17.8
2014-Nov-21 08:00N 41°12' E 011°00'2625.7 1023.6 18.3
2014-Nov-21 07:00N 40°48' E 011°12'2322.6 1023.6 18.0
2014-Nov-21 06:00N 40°30' E 011°30'2322.6 1023.4 17.7
2014-Nov-21 05:00N 40°12' E 011°48'2322.7 1023.4 17.2
2014-Nov-21 04:00N 39°54' E 012°06'2625.7 1023.2 17.1
2014-Nov-21 03:00N 39°30' E 012°18'2322.8 1023.5 17.0
2014-Nov-21 02:00N 39°12' E 012°36'2322.8 1023.5 17.2
2014-Nov-21 01:00N 38°54' E 012°54'2020.3 1023.6 17.6
2014-Nov-21 00:00N 38°36' E 013°06'2827.8 1024.0 17.7
2014-Nov-20 23:00N 38°12' E 013°24'6 1.2 1024.5 16.9
2014-Nov-20 18:00N 38°06' E 013°24'1312.9 1024.1 17.9
2014-Nov-20 17:00N 38°18' E 013°18'2625.8 1023.2 18.0
2014-Nov-20 16:00N 38°42' E 013°06'2322.8 1023.2 18.0
2014-Nov-20 15:00N 39°00' E 012°48'2322.8 1023.5 19.1
2014-Nov-20 14:00N 39°18' E 012°30'2322.7 1023.6 19.5
2014-Nov-20 13:00N 39°36' E 012°12'2625.7 1023.9 19.6
2014-Nov-20 12:00N 40°00' E 012°00'2322.7 1024.2 19.6
2014-Nov-20 11:00N 40°18' E 011°42'2322.6 1024.4 19.6
2014-Nov-20 10:00N 40°36' E 011°24'2827.6 1024.8 19.3
2014-Nov-20 09:00N 41°00' E 011°06'2322.5 1024.6 18.4
2014-Nov-20 08:00N 41°18' E 010°48'2020.1 1024.6 17.7
2014-Nov-20 07:00N 41°36' E 010°36'2222.5 1023.9 17.3
2014-Nov-20 06:00N 41°54' E 010°18'2222.4 1023.3 16.8
2014-Nov-20 05:00N 42°12' E 010°00'2625.6 1023.0 16.9
2014-Nov-20 04:00N 42°36' E 009°48'2625.6 1022.9 16.9
2014-Nov-20 03:00N 43°00' E 009°36'   1022.8 16.7

Dump ship's entire track history